HFR weather

Magnocentro 26 Heliport
Huixquilucan, México (state), Mexico

Public forecast

Using degrees Celsius for public forecast. Weather courtesy of forecast.io.

Closest aviation weather report (METAR) to Magnocentro 26 Heliport

Closest report is Licenciado Benito Juarez International Airport, 11.4 nm (21.2 km) E. Retrieved 2019/12/07 13:42 UTC (16 minutes ago):

MMMX 071342Z 06004KT 8SM SKC 07/03 A3052 NOSIG RMK HZY

Closest aviation forecast (TAF) to Magnocentro 26 Heliport

Closest forecast is Licenciado Benito Juarez International Airport, 11.4 nm (21.2 km) E. Retrieved 2019/12/07 12:34 UTC (1 hour ago):

TAF MMMX 071127Z 0712/0818 30005KT P6SM SKC TX21/0721Z TN06/0712Z FM071600 03005KT P6SM SKC FM072100 06010KT P6SM SKC FM080200 03005KT P6SM SCT020 FM080900 03005KT 2SM BR HZ SCT010 TEMPO 0810/0814 1/2SM BR HZ VV005 FM081600 08005KT 6SM HZ SCT020